Time;durP1;ratioP1;P1;durP2;ratioP2;P2;SDS_P1;SDS_P2;PMS_P1;PMS_P2;Temp;Humidity;BMP_temperature;BMP_pressure;BME280_temperature;BME280_humidity;BME280_pressure;Samples;Min_cycle;Max_cycle;Signal;HPM_P1;HPM_P2
2022/05/29 00:01:52;;;;;;;1.60;1.10;;;11.80;68.00;;;;;;5084241;28;20029;-68
2022/05/29 00:04:19;;;;;;;2.10;1.10;;;11.80;68.10;;;;;;5084735;28;20025;-68
2022/05/29 00:06:48;;;;;;;2.70;1.08;;;11.80;68.10;;;;;;5087068;28;20024;-69
2022/05/29 00:09:18;;;;;;;2.88;1.00;;;11.80;68.10;;;;;;5088067;28;20064;-68
2022/05/29 00:11:43;;;;;;;3.08;1.10;;;11.80;68.00;;;;;;5087618;28;20077;-68
2022/05/29 00:14:09;;;;;;;3.78;1.30;;;11.90;68.10;;;;;;5085253;28;20016;-68
2022/05/29 00:16:34;;;;;;;3.80;1.33;;;11.90;68.00;;;;;;5088828;28;20027;-69
2022/05/29 00:19:00;;;;;;;3.38;1.13;;;11.90;67.90;;;;;;5074750;28;20016;-69
2022/05/29 00:21:28;;;;;;;2.22;1.33;;;11.90;68.00;;;;;;5092400;28;20047;-69
2022/05/29 00:23:53;;;;;;;2.28;1.50;;;11.90;68.20;;;;;;5090068;28;20538;-68
2022/05/29 00:26:20;;;;;;;2.78;1.30;;;11.80;68.50;;;;;;5101755;28;20032;-68
2022/05/29 00:28:46;;;;;;;2.78;1.20;;;11.80;68.50;;;;;;5086801;28;20028;-68
2022/05/29 00:31:12;;;;;;;4.25;1.60;;;11.80;68.60;;;;;;5089881;28;20027;-68
2022/05/29 00:33:38;;;;;;;2.90;1.45;;;11.90;68.60;;;;;;5095122;28;20028;-68
2022/05/29 00:36:04;;;;;;;1.98;1.25;;;11.80;68.60;;;;;;5077647;28;20036;-67
2022/05/29 00:38:35;;;;;;;3.00;1.30;;;11.90;68.70;;;;;;5086714;28;20051;-68
2022/05/29 00:41:11;;;;;;;1.80;1.13;;;11.80;68.90;;;;;;5083352;28;20533;-68
2022/05/29 00:43:37;;;;;;;2.78;1.38;;;11.80;69.10;;;;;;5088941;28;20508;-68
2022/05/29 00:46:04;;;;;;;1.58;1.00;;;11.80;69.10;;;;;;5081116;28;20070;-68
2022/05/29 00:48:30;;;;;;;2.20;1.10;;;11.80;69.10;;;;;;5085593;28;20016;-68
2022/05/29 00:51:02;;;;;;;3.38;1.13;;;11.80;69.50;;;;;;5090238;28;20035;-68
2022/05/29 00:53:29;;;;;;;3.20;1.30;;;11.80;70.30;;;;;;5094282;28;20035;-69
2022/05/29 00:56:08;;;;;;;2.95;1.10;;;11.80;69.60;;;;;;5091184;28;20103;-68
2022/05/29 00:58:34;;;;;;;2.75;1.20;;;11.80;69.90;;;;;;5097014;28;20028;-68
2022/05/29 01:01:02;;;;;;;1.20;1.08;;;11.80;69.90;;;;;;5090144;28;20019;-68
2022/05/29 01:03:27;;;;;;;4.93;1.35;;;11.80;70.10;;;;;;5088542;28;20076;-69
2022/05/29 01:05:53;;;;;;;3.28;1.25;;;11.70;70.10;;;;;;5083623;28;20028;-68
2022/05/29 01:08:26;;;;;;;2.60;1.10;;;11.70;70.30;;;;;;5083915;28;20050;-68
2022/05/29 01:11:06;;;;;;;2.13;1.20;;;11.70;70.50;;;;;;5097406;28;20028;-68
2022/05/29 01:13:56;;;;;;;3.45;1.10;;;11.60;70.90;;;;;;5089877;28;20028;-68
2022/05/29 01:16:44;;;;;;;3.75;1.35;;;11.60;71.00;;;;;;5083491;28;20119;-68
2022/05/29 01:19:32;;;;;;;3.35;1.30;;;11.70;70.90;;;;;;5083099;28;20390;-68
2022/05/29 01:22:10;;;;;;;2.53;1.10;;;11.70;70.90;;;;;;5087464;28;20058;-67
2022/05/29 01:24:57;;;;;;;4.25;1.58;;;11.70;70.90;;;;;;5088735;28;20394;-67
2022/05/29 01:27:51;;;;;;;2.03;1.00;;;11.70;70.80;;;;;;5093513;28;20054;-68
2022/05/29 01:30:21;;;;;;;1.95;0.98;;;11.80;70.90;;;;;;5093684;28;20502;-68
2022/05/29 01:33:03;;;;;;;2.30;0.98;;;11.80;70.70;;;;;;5081167;28;20033;-67
2022/05/29 01:35:48;;;;;;;3.45;1.50;;;11.80;70.90;;;;;;5083369;28;20490;-69
2022/05/29 01:38:29;;;;;;;2.40;1.40;;;11.80;70.90;;;;;;5085371;28;20035;-69
2022/05/29 01:41:00;;;;;;;3.55;1.48;;;11.80;71.00;;;;;;5088975;28;20020;-69
2022/05/29 01:43:35;;;;;;;2.15;1.30;;;11.80;71.00;;;;;;5082608;28;20063;-68
2022/05/29 01:46:26;;;;;;;2.42;1.30;;;11.80;71.00;;;;;;5084867;28;20038;-69
2022/05/29 01:49:03;;;;;;;3.05;1.35;;;11.80;71.10;;;;;;5085538;28;20032;-68
2022/05/29 01:51:38;;;;;;;2.47;1.40;;;11.80;71.00;;;;;;5087139;28;20035;-67
2022/05/29 01:54:16;;;;;;;2.92;1.50;;;11.80;71.10;;;;;;5088188;28;20448;-68
2022/05/29 01:56:46;;;;;;;2.85;1.40;;;11.80;71.20;;;;;;5084976;28;20525;-69
2022/05/29 01:59:19;;;;;;;2.53;1.40;;;11.80;71.20;;;;;;5078616;28;20103;-70
2022/05/29 02:01:50;;;;;;;4.07;1.50;;;11.80;71.30;;;;;;5083408;28;20020;-70
2022/05/29 02:04:21;;;;;;;3.67;1.50;;;11.90;71.30;;;;;;5092559;28;20021;-69
2022/05/29 02:09:48;;;;;;;4.30;1.77;;;11.80;71.20;;;;;;5090518;28;20105;-68
2022/05/29 02:12:19;;;;;;;4.63;1.80;;;11.80;71.20;;;;;;5086291;28;20027;-68
2022/05/29 02:15:18;;;;;;;3.03;1.70;;;11.80;71.20;;;;;;5085038;28;20028;-68
2022/05/29 02:17:51;;;;;;;3.47;1.60;;;11.80;71.20;;;;;;5094804;28;20028;-69
2022/05/29 02:20:25;;;;;;;4.30;2.03;;;11.80;71.50;;;;;;5084134;28;20020;-68
2022/05/29 02:22:58;;;;;;;5.45;2.20;;;11.70;71.70;;;;;;5083206;28;20028;-69
2022/05/29 02:25:26;;;;;;;3.10;1.85;;;11.70;71.70;;;;;;5079694;28;20126;-69
2022/05/29 02:27:57;;;;;;;3.13;1.45;;;11.70;71.70;;;;;;5089352;28;20062;-69
2022/05/29 02:30:26;;;;;;;4.03;1.45;;;11.70;71.80;;;;;;5085614;28;20570;-69
2022/05/29 02:33:23;;;;;;;4.97;2.00;;;11.70;71.80;;;;;;5081530;28;20059;-69
2022/05/29 02:36:19;;;;;;;5.15;1.60;;;11.60;71.90;;;;;;5084160;28;20085;-69
2022/05/29 02:39:19;;;;;;;3.42;1.40;;;11.60;72.10;;;;;;5090596;28;20470;-69
2022/05/29 02:42:05;;;;;;;4.18;1.70;;;11.50;72.00;;;;;;5092665;28;20024;-69
2022/05/29 02:44:51;;;;;;;4.68;1.55;;;11.50;72.10;;;;;;5097686;28;20496;-68
2022/05/29 02:47:25;;;;;;;3.28;1.80;;;11.50;72.10;;;;;;5090079;28;20027;-69
2022/05/29 02:50:20;;;;;;;2.17;1.42;;;11.50;72.30;;;;;;5075059;28;20016;-69
2022/05/29 02:52:51;;;;;;;2.47;1.30;;;11.50;72.40;;;;;;5087644;28;20390;-69
2022/05/29 02:55:18;;;;;;;3.60;1.70;;;11.60;72.30;;;;;;5090498;28;20059;-69
2022/05/29 02:57:43;;;;;;;3.42;1.45;;;11.50;72.40;;;;;;5092485;28;20489;-69
2022/05/29 03:00:13;;;;;;;2.63;1.30;;;11.50;72.50;;;;;;5086087;28;20066;-69
2022/05/29 03:03:00;;;;;;;2.80;1.50;;;11.50;72.60;;;;;;5063112;28;20024;-69
2022/05/29 03:05:50;;;;;;;2.97;1.40;;;11.50;72.80;;;;;;5097558;28;20085;-69
2022/05/29 03:08:53;;;;;;;2.15;1.48;;;11.40;72.90;;;;;;5084408;28;20036;-68
2022/05/29 03:11:40;;;;;;;2.13;1.15;;;11.50;73.00;;;;;;5082881;28;20028;-69
2022/05/29 03:14:26;;;;;;;2.60;1.30;;;11.40;72.90;;;;;;5091416;28;20024;-69
2022/05/29 03:17:20;;;;;;;2.80;1.30;;;11.50;72.90;;;;;;5087386;28;20485;-68
2022/05/29 03:19:50;;;;;;;2.60;1.00;;;11.50;73.00;;;;;;5087367;28;20055;-68
2022/05/29 03:22:38;;;;;;;2.88;1.50;;;11.50;72.90;;;;;;5065620;28;20083;-69
2022/05/29 03:25:18;;;;;;;3.47;1.60;;;11.50;73.20;;;;;;5084118;28;20020;-68
2022/05/29 03:27:47;;;;;;;2.53;1.48;;;11.50;73.20;;;;;;5094994;28;20055;-68
2022/05/29 03:30:19;;;;;;;1.75;1.20;;;11.50;73.20;;;;;;5082127;28;20012;-67
2022/05/29 03:32:49;;;;;;;2.55;1.25;;;11.50;73.20;;;;;;5086161;28;20139;-66
2022/05/29 03:35:32;;;;;;;2.50;1.50;;;11.50;73.30;;;;;;5087816;28;20476;-67
2022/05/29 03:37:58;;;;;;;;;;;11.40;73.50;;;;;;5086092;28;20478;-69
2022/05/29 03:40:28;;;;;;;3.00;1.40;;;11.50;73.40;;;;;;5085873;28;19908;-68
2022/05/29 03:42:55;;;;;;;3.70;1.45;;;11.40;73.50;;;;;;5094406;28;20016;-68
2022/05/29 03:45:21;;;;;;;1.67;1.10;;;11.40;73.40;;;;;;5079758;28;20745;-68
2022/05/29 03:47:46;;;;;;;2.40;1.20;;;11.40;73.40;;;;;;5071442;28;20054;-67
2022/05/29 03:50:16;;;;;;;3.83;1.45;;;11.50;73.50;;;;;;5096777;28;20641;-68
2022/05/29 03:52:42;;;;;;;2.33;1.30;;;11.50;73.40;;;;;;5087629;28;20601;-68
2022/05/29 03:55:09;;;;;;;1.33;1.20;;;11.50;73.40;;;;;;5099030;28;20106;-68
2022/05/29 03:57:35;;;;;;;2.35;1.20;;;11.50;73.40;;;;;;5089819;28;20036;-68
2022/05/29 04:00:01;;;;;;;2.80;1.40;;;11.60;73.40;;;;;;5105233;28;20072;-68
2022/05/29 04:02:26;;;;;;;3.25;1.30;;;11.60;73.40;;;;;;5091604;28;20021;-69
2022/05/29 04:04:52;;;;;;;2.22;1.23;;;11.70;73.50;;;;;;5065639;28;20111;-69
2022/05/29 04:07:17;;;;;;;2.00;1.30;;;11.70;73.40;;;;;;5075242;28;20479;-68
2022/05/29 04:12:27;;;;;;;3.85;1.60;;;11.80;73.30;;;;;;5091839;28;20443;-68
2022/05/29 04:14:52;;;;;;;2.42;1.30;;;11.80;73.30;;;;;;5088023;28;20107;-68
2022/05/29 04:17:19;;;;;;;2.05;1.30;;;11.90;73.30;;;;;;5097033;28;20021;-69
2022/05/29 04:19:46;;;;;;;3.45;1.50;;;11.90;73.20;;;;;;5095274;28;20026;-68
2022/05/29 04:22:18;;;;;;;3.50;1.60;;;11.90;73.30;;;;;;5106092;28;20382;-69
2022/05/29 04:24:44;;;;;;;2.50;1.52;;;11.90;73.50;;;;;;5089928;28;20099;-69
2022/05/29 04:27:12;;;;;;;2.67;1.55;;;11.80;73.60;;;;;;5091508;28;20103;-69
2022/05/29 04:29:38;;;;;;;2.97;1.38;;;11.90;73.60;;;;;;5096241;28;20028;-68
2022/05/29 04:34:51;;;;;;;2.33;1.42;;;12.10;73.40;;;;;;5098436;28;20043;-69
2022/05/29 04:37:17;;;;;;;3.53;1.30;;;12.00;73.20;;;;;;5095771;28;20031;-69
2022/05/29 04:39:42;;;;;;;2.53;1.40;;;12.00;73.10;;;;;;5101868;28;20041;-69
2022/05/29 04:42:08;;;;;;;3.10;1.48;;;12.10;73.10;;;;;;5087596;28;20106;-69
2022/05/29 04:44:34;;;;;;;2.13;1.30;;;12.00;73.20;;;;;;5113849;28;20363;-70
2022/05/29 04:47:00;;;;;;;2.40;1.30;;;12.00;73.20;;;;;;5104475;28;20043;-69
2022/05/29 04:49:26;;;;;;;2.72;1.40;;;12.00;73.20;;;;;;5109256;28;20035;-69
2022/05/29 04:51:52;;;;;;;3.28;1.50;;;11.90;73.20;;;;;;5100668;28;20045;-69
2022/05/29 04:54:17;;;;;;;2.25;1.23;;;11.90;73.20;;;;;;5078114;28;20055;-69
2022/05/29 04:56:46;;;;;;;1.80;1.30;;;12.00;73.10;;;;;;5097075;28;20073;-69
2022/05/29 04:59:11;;;;;;;1.10;1.00;;;12.00;73.10;;;;;;5095299;28;20046;-69
2022/05/29 05:01:38;;;;;;;2.58;1.30;;;12.00;73.10;;;;;;5080508;28;20028;-70
2022/05/29 05:04:04;;;;;;;2.05;1.40;;;11.90;73.20;;;;;;5102009;28;20655;-69
2022/05/29 05:06:29;;;;;;;2.25;1.30;;;11.90;73.30;;;;;;5095285;28;20035;-70
2022/05/29 05:08:55;;;;;;;3.65;1.40;;;11.80;73.40;;;;;;5096885;28;20031;-70
2022/05/29 05:11:20;;;;;;;2.10;1.23;;;11.80;73.60;;;;;;5079073;28;20024;-69
2022/05/29 05:13:46;;;;;;;2.13;1.05;;;11.90;73.60;;;;;;5091000;28;20070;-69
2022/05/29 05:16:11;;;;;;;2.10;1.00;;;12.00;73.50;;;;;;5085434;28;20020;-70
2022/05/29 05:18:37;;;;;;;1.77;1.10;;;12.00;73.40;;;;;;5081746;28;20390;-69
2022/05/29 05:21:07;;;;;;;3.33;1.42;;;12.00;73.40;;;;;;5092241;28;20553;-70
2022/05/29 05:23:33;;;;;;;3.28;1.60;;;12.00;73.60;;;;;;5087577;28;20040;-69
2022/05/29 05:25:59;;;;;;;2.75;1.40;;;12.00;73.70;;;;;;5093757;28;20043;-69
2022/05/29 05:28:25;;;;;;;1.75;1.30;;;12.00;73.80;;;;;;5089020;28;20067;-69
2022/05/29 05:30:50;;;;;;;1.73;1.20;;;12.00;74.10;;;;;;5089348;28;20047;-69
2022/05/29 05:33:16;;;;;;;4.40;1.40;;;12.00;74.00;;;;;;5085864;28;20685;-69
2022/05/29 05:35:41;;;;;;;2.25;1.20;;;12.00;73.90;;;;;;5077097;28;20047;-70
2022/05/29 05:38:07;;;;;;;3.50;1.30;;;12.00;74.60;;;;;;5068735;28;20059;-70
2022/05/29 05:40:33;;;;;;;3.05;1.40;;;12.00;74.10;;;;;;5082686;28;20032;-70
2022/05/29 05:42:58;;;;;;;2.20;1.17;;;12.00;74.40;;;;;;5084347;28;20048;-70
2022/05/29 05:45:24;;;;;;;2.65;1.30;;;12.00;74.60;;;;;;5082262;28;20017;-70
2022/05/29 05:47:49;;;;;;;3.42;1.20;;;12.00;74.70;;;;;;5089550;28;20660;-70
2022/05/29 05:50:15;;;;;;;1.73;1.20;;;12.10;74.80;;;;;;5084749;28;20032;-71
2022/05/29 05:52:41;;;;;;;2.55;1.30;;;12.10;74.70;;;;;;5092201;28;20020;-71
2022/05/29 05:55:10;;;;;;;2.20;1.10;;;12.10;74.60;;;;;;5089749;28;20020;-71
2022/05/29 05:57:36;;;;;;;2.83;1.40;;;12.20;74.70;;;;;;5100823;28;20023;-70
2022/05/29 06:00:04;;;;;;;2.60;1.30;;;12.20;74.70;;;;;;5099329;28;20031;-70
2022/05/29 06:02:29;;;;;;;3.20;1.40;;;12.30;74.70;;;;;;5094930;28;20024;-70
2022/05/29 06:04:55;;;;;;;2.08;1.20;;;12.30;74.60;;;;;;5066948;28;20027;-70
2022/05/29 06:07:20;;;;;;;2.75;1.25;;;12.40;74.60;;;;;;5084641;28;20955;-69
2022/05/29 06:09:45;;;;;;;3.10;1.30;;;12.50;74.50;;;;;;5091768;28;20057;-69
2022/05/29 06:12:11;;;;;;;1.88;1.30;;;12.60;74.30;;;;;;5082727;28;20032;-69
2022/05/29 06:14:37;;;;;;;2.35;1.23;;;12.70;74.30;;;;;;5080176;28;20114;-70
2022/05/29 06:17:03;;;;;;;3.08;1.40;;;12.80;74.20;;;;;;5083284;28;20394;-70
2022/05/29 06:19:29;;;;;;;2.13;1.20;;;12.90;74.20;;;;;;5088467;28;20116;-70
2022/05/29 06:21:55;;;;;;;1.85;1.08;;;13.10;73.90;;;;;;5080733;28;20485;-68
2022/05/29 06:24:20;;;;;;;2.17;0.93;;;13.20;73.50;;;;;;5086915;28;20493;-70
2022/05/29 06:26:46;;;;;;;3.40;1.20;;;13.30;73.30;;;;;;5083231;28;20387;-69
2022/05/29 06:29:11;;;;;;;3.30;1.45;;;13.20;73.20;;;;;;5083947;28;20662;-68
2022/05/29 06:31:37;;;;;;;2.85;1.30;;;13.20;73.20;;;;;;5088655;28;20078;-69
2022/05/29 06:34:02;;;;;;;1.52;1.25;;;13.10;73.40;;;;;;5084021;28;20060;-70
2022/05/29 06:36:28;;;;;;;1.92;1.27;;;13.10;73.50;;;;;;5085990;28;20027;-65
2022/05/29 06:38:55;;;;;;;2.55;1.13;;;13.10;73.50;;;;;;5061540;28;20160;-70
2022/05/29 06:41:23;;;;;;;1.60;1.20;;;13.10;73.60;;;;;;5080546;28;20115;-67
2022/05/29 06:43:52;;;;;;;2.17;1.10;;;13.00;73.60;;;;;;5089258;28;20167;-68
2022/05/29 06:46:20;;;;;;;4.07;1.20;;;13.10;73.70;;;;;;5092351;28;20024;-68
2022/05/29 06:48:46;;;;;;;2.25;1.15;;;13.00;73.70;;;;;;5087168;28;20039;-69
2022/05/29 06:51:15;;;;;;;1.95;1.20;;;12.90;74.00;;;;;;5087959;28;20032;-69
2022/05/29 06:53:41;;;;;;;2.05;1.10;;;12.80;74.30;;;;;;5094836;28;20024;-69
2022/05/29 06:56:08;;;;;;;2.25;1.10;;;12.80;74.50;;;;;;5085120;28;20028;-69
2022/05/29 06:58:35;;;;;;;1.73;1.20;;;12.80;74.60;;;;;;5087022;28;20016;-68
2022/05/29 07:06:59;;;;;;;1.92;1.20;;;12.80;74.50;;;;;;5087970;28;20032;-69
2022/05/29 07:09:36;;;;;;;1.55;1.10;;;12.80;74.50;;;;;;5091315;28;20036;-69
2022/05/29 07:12:24;;;;;;;2.00;1.00;;;12.90;74.40;;;;;;5088122;28;20107;-69
2022/05/29 07:15:04;;;;;;;2.35;1.30;;;13.10;74.30;;;;;;5092345;28;20035;-69
2022/05/29 07:17:29;;;;;;;1.17;0.93;;;13.20;74.00;;;;;;5089030;28;20024;-68
2022/05/29 07:19:55;;;;;;;1.95;1.00;;;13.20;74.00;;;;;;5096476;28;20038;-68
2022/05/29 07:22:21;;;;;;;2.00;1.13;;;13.20;73.90;;;;;;5098604;28;20023;-68
2022/05/29 07:24:46;;;;;;;1.38;1.00;;;13.30;73.60;;;;;;5088701;28;20019;-67
2022/05/29 07:27:12;;;;;;;2.10;1.10;;;13.40;73.50;;;;;;5091594;28;20106;-68
2022/05/29 07:29:38;;;;;;;1.65;1.10;;;13.40;73.50;;;;;;5086978;28;20055;-68
2022/05/29 07:32:05;;;;;;;1.45;0.90;;;13.50;74.00;;;;;;5070558;28;21325;-68
2022/05/29 07:34:30;;;;;;;2.83;1.08;;;13.60;73.30;;;;;;5092676;28;20020;-69
2022/05/29 07:37:08;;;;;;;2.05;1.00;;;13.70;73.00;;;;;;5085643;28;21838;-68
2022/05/29 07:39:40;;;;;;;2.55;1.20;;;13.80;72.80;;;;;;5081308;28;20036;-69
2022/05/29 07:44:52;;;;;;;2.30;1.00;;;13.80;72.70;;;;;;5090166;28;20085;-69
2022/05/29 07:47:18;;;;;;;4.45;1.40;;;13.70;73.00;;;;;;5066923;28;20012;-69
2022/05/29 07:49:44;;;;;;;1.75;1.00;;;13.50;73.30;;;;;;5070773;28;20055;-68
2022/05/29 07:52:09;;;;;;;2.40;1.20;;;13.40;73.60;;;;;;5081639;28;20459;-68
2022/05/29 07:54:35;;;;;;;3.15;1.25;;;13.30;73.80;;;;;;5087647;28;20039;-69
2022/05/29 07:57:03;;;;;;;1.42;1.10;;;13.20;74.00;;;;;;5091145;28;20052;-70
2022/05/29 07:59:29;;;;;;;2.15;1.15;;;13.20;74.20;;;;;;5076413;28;20591;-70
2022/05/29 08:01:55;;;;;;;1.27;1.00;;;13.20;74.30;;;;;;5097727;28;20108;-69
2022/05/29 08:04:21;;;;;;;2.40;1.30;;;13.20;74.40;;;;;;5098104;28;20055;-68
2022/05/29 08:06:49;;;;;;;3.78;1.10;;;13.30;74.50;;;;;;5088748;28;20364;-69
2022/05/29 08:09:15;;;;;;;3.08;1.20;;;13.30;74.60;;;;;;5097767;28;20071;-69
2022/05/29 08:11:41;;;;;;;4.20;1.20;;;13.40;74.40;;;;;;5096659;28;20040;-69
2022/05/29 08:14:07;;;;;;;2.97;1.10;;;13.50;74.30;;;;;;5090638;28;20383;-68
2022/05/29 08:16:33;;;;;;;2.47;1.00;;;13.60;74.10;;;;;;5091293;28;20028;-68
2022/05/29 08:18:58;;;;;;;2.08;1.02;;;13.70;73.90;;;;;;5087841;28;20029;-69
2022/05/29 08:21:24;;;;;;;2.15;1.17;;;13.80;73.80;;;;;;5090964;28;20012;-67
2022/05/29 08:32:02;;;;;;;2.58;1.20;;;14.40;72.80;;;;;;5093255;28;20043;-68
2022/05/29 08:34:28;;;;;;;3.65;1.15;;;14.40;72.80;;;;;;5096558;28;20028;-68
2022/05/29 08:36:55;;;;;;;1.67;1.08;;;14.60;72.70;;;;;;5095624;28;20533;-69
2022/05/29 08:39:21;;;;;;;2.55;1.30;;;14.60;72.50;;;;;;5098240;28;20027;-68
2022/05/29 08:41:51;;;;;;;2.83;1.20;;;14.50;72.40;;;;;;5088091;28;20020;-68
2022/05/29 08:44:20;;;;;;;3.20;1.20;;;14.50;72.40;;;;;;5091900;28;20032;-68
2022/05/29 08:46:49;;;;;;;2.55;1.10;;;14.50;73.10;;;;;;5098562;28;20020;-68
2022/05/29 08:49:26;;;;;;;2.83;1.20;;;14.50;72.50;;;;;;5077320;28;20027;-68
2022/05/29 08:52:25;;;;;;;1.60;1.15;;;14.50;72.40;;;;;;5093050;28;20047;-67
2022/05/29 08:55:07;;;;;;;1.65;1.08;;;14.60;72.50;;;;;;5087013;28;20856;-68
2022/05/29 08:57:40;;;;;;;;;;;14.60;72.40;;;;;;5097369;28;20505;-68
2022/05/29 09:00:22;;;;;;;2.10;1.08;;;14.60;71.90;;;;;;5099996;28;19907;-67
2022/05/29 09:03:22;;;;;;;2.47;1.10;;;14.70;72.10;;;;;;5078496;28;20093;-67
2022/05/29 09:06:04;;;;;;;2.45;1.20;;;14.60;71.80;;;;;;5099538;28;20024;-67
2022/05/29 09:08:42;;;;;;;2.15;1.00;;;14.70;71.80;;;;;;5069049;28;20031;-68
2022/05/29 09:11:19;;;;;;;1.95;1.10;;;14.80;71.80;;;;;;5089242;28;20028;-68
2022/05/29 09:13:52;;;;;;;2.88;1.33;;;14.70;71.50;;;;;;5081735;28;20033;-67
2022/05/29 09:16:21;;;;;;;3.05;1.08;;;14.70;71.50;;;;;;5084456;28;20015;-68
2022/05/29 09:18:51;;;;;;;1.80;0.90;;;14.50;71.30;;;;;;5083523;28;20047;-69
2022/05/29 09:21:21;;;;;;;3.15;1.17;;;14.40;71.70;;;;;;5094415;28;20111;-68
2022/05/29 09:24:01;;;;;;;2.30;0.90;;;14.40;71.80;;;;;;5078379;28;20478;-68
2022/05/29 09:26:34;;;;;;;2.88;1.17;;;14.40;71.80;;;;;;5072432;28;20020;-68
2022/05/29 09:28:59;;;;;;;2.42;1.10;;;14.50;71.60;;;;;;5089210;28;20606;-69
2022/05/29 09:31:25;;;;;;;2.88;1.30;;;14.60;71.40;;;;;;5087160;28;20103;-69
2022/05/29 09:33:51;;;;;;;2.88;1.20;;;14.50;71.00;;;;;;5094703;28;20036;-68
2022/05/29 09:36:27;;;;;;;2.47;1.02;;;14.40;71.00;;;;;;5097000;28;20024;-68
2022/05/29 09:39:29;;;;;;;2.22;1.08;;;14.40;71.10;;;;;;5068784;28;20023;-69
2022/05/29 09:42:06;;;;;;;2.83;1.20;;;14.50;71.00;;;;;;5080995;28;20040;-67
2022/05/29 09:44:32;;;;;;;2.80;1.13;;;14.50;71.00;;;;;;5091276;28;20055;-67
2022/05/29 09:49:40;;;;;;;5.03;2.20;;;14.60;71.00;;;;;;5102451;28;20063;-67
2022/05/29 09:50:00;;;;;;;2.22;1.40;;;14.70;71.00;;;;;;5088240;28;20421;-67
2022/05/29 09:52:30;;;;;;;4.88;1.70;;;15.00;70.80;;;;;;5090690;28;20024;-68
2022/05/29 09:55:14;;;;;;;4.50;1.30;;;15.10;70.00;;;;;;5098268;28;20020;-68
2022/05/29 09:57:49;;;;;;;3.38;1.13;;;15.10;69.50;;;;;;5079713;28;20040;-68
2022/05/29 10:00:23;;;;;;;3.45;1.23;;;15.00;69.40;;;;;;5096096;28;20024;-68
2022/05/29 10:02:49;;;;;;;5.97;2.00;;;15.00;69.50;;;;;;5093543;28;20607;-68
2022/05/29 10:05:28;;;;;;;3.88;1.42;;;14.90;69.20;;;;;;5092369;28;20024;-68
2022/05/29 10:07:57;;;;;;;3.40;1.17;;;15.00;69.20;;;;;;5093748;28;20073;-68
2022/05/29 10:10:25;;;;;;;3.25;1.00;;;15.00;68.70;;;;;;5068501;28;20020;-67
2022/05/29 10:12:53;;;;;;;3.47;1.08;;;15.00;68.70;;;;;;5079001;28;20032;-68
2022/05/29 10:15:24;;;;;;;4.68;1.27;;;15.10;68.80;;;;;;5083661;28;20034;-69
2022/05/29 10:17:51;;;;;;;2.92;1.30;;;15.10;68.70;;;;;;5090042;28;20098;-69
2022/05/29 10:20:29;;;;;;;3.63;1.05;;;15.10;68.60;;;;;;5086915;28;20024;-69
2022/05/29 10:22:55;;;;;;;3.08;1.02;;;15.10;68.40;;;;;;5092113;28;20125;-69
2022/05/29 10:25:31;;;;;;;3.95;1.30;;;15.00;68.50;;;;;;5086458;28;20537;-69
2022/05/29 10:28:02;;;;;;;4.00;1.35;;;14.90;68.60;;;;;;5090657;28;20055;-69
2022/05/29 10:30:43;;;;;;;4.63;1.25;;;14.80;68.60;;;;;;5088879;28;20039;-69
2022/05/29 10:33:13;;;;;;;3.67;1.30;;;14.60;68.90;;;;;;5092251;28;20162;-68
2022/05/29 10:35:41;;;;;;;3.88;1.20;;;14.40;69.40;;;;;;5089789;28;20024;-68
2022/05/29 10:38:13;;;;;;;2.20;1.08;;;14.20;69.80;;;;;;5101086;28;20015;-66
2022/05/29 10:40:41;;;;;;;3.85;1.40;;;14.10;70.30;;;;;;5088062;28;20077;-68
2022/05/29 10:43:06;;;;;;;3.72;1.38;;;14.00;70.80;;;;;;5102605;28;20020;-68
2022/05/29 10:45:41;;;;;;;3.85;1.30;;;13.90;71.40;;;;;;5098906;28;20478;-68
2022/05/29 10:48:48;;;;;;;3.65;1.13;;;13.80;71.60;;;;;;5073791;28;20024;-71
2022/05/29 10:51:17;;;;;;;3.78;1.42;;;13.90;71.80;;;;;;5094336;28;20054;-67
2022/05/29 10:54:10;;;;;;;3.85;1.40;;;14.00;71.70;;;;;;5092861;28;20444;-69
2022/05/29 10:56:53;;;;;;;3.83;1.20;;;14.00;71.40;;;;;;5094372;28;20488;-68
2022/05/29 10:59:37;;;;;;;3.15;1.10;;;14.10;71.20;;;;;;5084659;28;20028;-68
2022/05/29 11:05:06;;;;;;;3.92;1.65;;;14.40;70.20;;;;;;5090102;28;20047;-69
2022/05/29 11:07:46;;;;;;;3.15;1.02;;;14.60;69.60;;;;;;5092286;28;20051;-68
2022/05/29 11:10:54;;;;;;;4.35;1.30;;;14.90;68.60;;;;;;5098607;28;20189;-67
2022/05/29 11:13:25;;;;;;;4.22;1.10;;;15.00;67.80;;;;;;5082906;28;20032;-68
2022/05/29 11:16:34;;;;;;;2.72;1.10;;;15.10;67.70;;;;;;5083299;28;20035;-67
2022/05/29 11:19:47;;;;;;;4.57;1.27;;;15.30;67.20;;;;;;5077829;28;20039;-68
2022/05/29 11:22:28;;;;;;;4.32;1.27;;;15.50;66.70;;;;;;5060740;28;20041;-68
2022/05/29 11:24:57;;;;;;;3.20;1.17;;;15.50;65.40;;;;;;5087798;28;20016;-68
2022/05/29 11:27:47;;;;;;;3.88;1.23;;;15.50;64.90;;;;;;5066224;28;20134;-68
2022/05/29 11:30:47;;;;;;;3.53;1.17;;;15.60;64.60;;;;;;5079727;28;20509;-69
2022/05/29 11:33:19;;;;;;;3.75;1.20;;;15.70;64.00;;;;;;5071746;28;20080;-68
2022/05/29 11:36:08;;;;;;;2.25;1.00;;;15.70;63.40;;;;;;5092035;28;20024;-68
2022/05/29 11:39:11;;;;;;;3.67;1.02;;;15.80;63.20;;;;;;5091065;28;20049;-69
2022/05/29 11:41:45;;;;;;;4.38;1.30;;;15.90;63.00;;;;;;5086258;28;20214;-68
2022/05/29 11:44:51;;;;;;;3.47;1.20;;;15.90;62.00;;;;;;5065319;28;20024;-68
2022/05/29 11:53:48;;;;;;;2.65;0.90;;;16.10;60.40;;;;;;5082109;28;20071;-68
2022/05/29 11:56:26;;;;;;;3.22;1.17;;;16.20;60.10;;;;;;5082558;28;20470;-67
2022/05/29 11:59:04;;;;;;;1.50;0.73;;;16.30;60.10;;;;;;5088156;28;20031;-67
2022/05/29 12:01:36;;;;;;;2.40;0.90;;;16.50;60.00;;;;;;5068571;28;20017;-68
2022/05/29 12:04:13;;;;;;;;;;;16.60;59.70;;;;;;5066775;28;20493;-68
2022/05/29 12:06:45;;;;;;;1.40;0.85;;;16.80;59.20;;;;;;5100383;28;19955;-68
2022/05/29 12:09:30;;;;;;;3.53;1.20;;;17.10;58.90;;;;;;5092722;28;20118;-69
2022/05/29 12:12:01;;;;;;;4.00;1.05;;;17.20;58.20;;;;;;5079106;28;20028;-68
2022/05/29 12:14:51;;;;;;;2.08;0.73;;;17.40;57.80;;;;;;5089156;28;20490;-68
2022/05/29 12:17:40;;;;;;;2.75;0.80;;;17.40;57.40;;;;;;5076341;28;20036;-68
2022/05/29 12:20:34;;;;;;;2.25;0.93;;;17.40;56.80;;;;;;5081808;28;20017;-68
2022/05/29 12:23:05;;;;;;;2.78;0.90;;;17.40;56.30;;;;;;5095993;28;20020;-68
2022/05/29 12:25:37;;;;;;;2.17;0.82;;;17.40;56.00;;;;;;5088946;28;20038;-68
2022/05/29 12:28:15;;;;;;;2.65;1.00;;;17.50;55.00;;;;;;5099178;28;20019;-68
2022/05/29 12:30:45;;;;;;;3.13;0.90;;;17.80;54.90;;;;;;5103498;28;20119;-68
2022/05/29 12:33:20;;;;;;;1.80;0.90;;;17.80;54.10;;;;;;5094008;28;20028;-68
2022/05/29 12:36:12;;;;;;;1.42;0.60;;;17.80;54.40;;;;;;5086816;28;20032;-69
2022/05/29 12:38:43;;;;;;;1.63;0.70;;;17.80;54.70;;;;;;5067745;28;20028;-69
2022/05/29 12:41:27;;;;;;;2.85;0.77;;;17.60;54.40;;;;;;5090418;28;20020;-68
2022/05/29 12:44:12;;;;;;;3.17;0.88;;;17.70;54.50;;;;;;5091777;28;20034;-67
2022/05/29 12:47:06;;;;;;;2.03;0.68;;;17.30;53.20;;;;;;5099246;28;20032;-69
2022/05/29 12:49:48;;;;;;;2.35;0.70;;;17.00;53.40;;;;;;5081678;28;20044;-68
2022/05/29 12:52:18;;;;;;;1.65;0.65;;;16.80;53.90;;;;;;5079496;28;20059;-69
2022/05/29 12:54:53;;;;;;;1.48;0.80;;;16.80;54.50;;;;;;5088635;28;20054;-69
2022/05/29 12:57:38;;;;;;;1.85;0.80;;;16.80;54.30;;;;;;5070562;28;20672;-68
2022/05/29 13:00:18;;;;;;;2.00;0.90;;;16.80;54.10;;;;;;5080455;28;20055;-69
2022/05/29 13:02:58;;;;;;;2.40;0.77;;;16.90;54.00;;;;;;5090026;28;20070;-67
2022/05/29 13:05:43;;;;;;;1.95;0.80;;;17.10;54.00;;;;;;5089949;28;20157;-67
2022/05/29 13:08:58;;;;;;;3.08;0.82;;;17.30;54.00;;;;;;5088986;28;20024;-68
2022/05/29 13:11:27;;;;;;;1.23;0.70;;;17.40;53.70;;;;;;5101749;28;20096;-68
2022/05/29 13:14:00;;;;;;;1.75;0.70;;;17.30;53.70;;;;;;5090844;28;20142;-68
2022/05/29 13:16:30;;;;;;;2.75;0.93;;;17.20;54.00;;;;;;5092694;28;20082;-69
2022/05/29 13:19:10;;;;;;;1.45;0.70;;;17.20;54.00;;;;;;5089043;28;20023;-68
2022/05/29 13:21:58;;;;;;;1.13;0.57;;;17.20;53.90;;;;;;5096552;28;20008;-68
2022/05/29 13:24:29;;;;;;;2.40;0.65;;;17.20;54.00;;;;;;5085146;28;20032;-69
2022/05/29 13:27:13;;;;;;;1.45;0.68;;;17.10;53.90;;;;;;5083337;28;20147;-69
2022/05/29 13:29:44;;;;;;;1.67;0.70;;;17.20;53.50;;;;;;5068119;28;20039;-69
2022/05/29 13:32:13;;;;;;;3.25;0.88;;;17.10;53.40;;;;;;5088927;28;20548;-70
2022/05/29 13:35:02;;;;;;;2.47;0.75;;;17.10;53.20;;;;;;5072510;28;20494;-68
2022/05/29 13:37:46;;;;;;;1.55;0.60;;;17.10;53.40;;;;;;5052753;28;20048;-69
2022/05/29 13:40:21;;;;;;;2.28;0.80;;;17.20;53.30;;;;;;5085032;28;20054;-69
2022/05/29 13:42:53;;;;;;;1.42;0.70;;;17.20;53.00;;;;;;5074098;28;20024;-68
2022/05/29 13:45:24;;;;;;;0.95;0.60;;;17.10;53.10;;;;;;5082088;28;20093;-68
2022/05/29 13:48:01;;;;;;;2.10;0.70;;;17.20;53.30;;;;;;5086800;28;20039;-69
2022/05/29 13:50:50;;;;;;;2.25;0.80;;;17.10;53.30;;;;;;5085728;28;20028;-69
2022/05/29 13:53:36;;;;;;;2.00;0.80;;;17.00;53.30;;;;;;5051164;28;20102;-69
2022/05/29 13:56:13;;;;;;;1.25;0.88;;;16.80;53.40;;;;;;5073149;28;20035;-69